sensor_id;sensor_type;location;lat;lon;timestamp;P1;durP1;ratioP1;P2;durP2;ratioP2
2522;SDS011;1272;53.332;9.860;2022-09-01T00:01:13;1.20;;;1.20;;
2522;SDS011;1272;53.332;9.860;2022-09-01T00:03:45;1.13;;;1.13;;
2522;SDS011;1272;53.332;9.860;2022-09-01T00:06:17;1.50;;;1.40;;
2522;SDS011;1272;53.332;9.860;2022-09-01T00:08:49;1.67;;;1.13;;
2522;SDS011;1272;53.332;9.860;2022-09-01T00:11:16;2.90;;;1.20;;
2522;SDS011;1272;53.332;9.860;2022-09-01T00:13:42;1.30;;;1.30;;
2522;SDS011;1272;53.332;9.860;2022-09-01T00:16:08;1.20;;;1.10;;
2522;SDS011;1272;53.332;9.860;2022-09-01T00:18:34;1.30;;;1.30;;
2522;SDS011;1272;53.332;9.860;2022-09-01T00:21:01;1.00;;;1.00;;
2522;SDS011;1272;53.332;9.860;2022-09-01T00:23:27;2.70;;;1.30;;
2522;SDS011;1272;53.332;9.860;2022-09-01T00:25:53;1.53;;;1.00;;
2522;SDS011;1272;53.332;9.860;2022-09-01T00:28:19;1.23;;;1.23;;
2522;SDS011;1272;53.332;9.860;2022-09-01T00:30:45;3.23;;;1.73;;
2522;SDS011;1272;53.332;9.860;2022-09-01T00:33:10;1.30;;;1.30;;
2522;SDS011;1272;53.332;9.860;2022-09-01T00:35:36;1.27;;;1.17;;
2522;SDS011;1272;53.332;9.860;2022-09-01T00:38:02;1.37;;;1.27;;
2522;SDS011;1272;53.332;9.860;2022-09-01T00:40:28;0.97;;;0.87;;
2522;SDS011;1272;53.332;9.860;2022-09-01T00:42:54;5.23;;;1.30;;
2522;SDS011;1272;53.332;9.860;2022-09-01T00:45:19;1.23;;;1.13;;
2522;SDS011;1272;53.332;9.860;2022-09-01T00:47:46;1.10;;;1.10;;
2522;SDS011;1272;53.332;9.860;2022-09-01T00:50:13;5.53;;;1.67;;
2522;SDS011;1272;53.332;9.860;2022-09-01T00:52:43;1.00;;;0.93;;
2522;SDS011;1272;53.332;9.860;2022-09-01T00:55:14;0.97;;;0.97;;
2522;SDS011;1272;53.332;9.860;2022-09-01T00:57:43;2.30;;;1.10;;
2522;SDS011;1272;53.332;9.860;2022-09-01T01:00:20;1.20;;;1.20;;
2522;SDS011;1272;53.332;9.860;2022-09-01T01:02:49;1.57;;;1.10;;
2522;SDS011;1272;53.332;9.860;2022-09-01T01:05:21;1.67;;;1.00;;
2522;SDS011;1272;53.332;9.860;2022-09-01T01:07:48;0.90;;;0.90;;
2522;SDS011;1272;53.332;9.860;2022-09-01T01:10:15;0.80;;;0.80;;
2522;SDS011;1272;53.332;9.860;2022-09-01T01:12:42;1.17;;;1.10;;
2522;SDS011;1272;53.332;9.860;2022-09-01T01:15:10;1.20;;;1.10;;
2522;SDS011;1272;53.332;9.860;2022-09-01T01:17:37;0.90;;;0.90;;
2522;SDS011;1272;53.332;9.860;2022-09-01T01:20:03;0.90;;;0.90;;
2522;SDS011;1272;53.332;9.860;2022-09-01T01:23:02;1.07;;;1.00;;
2522;SDS011;1272;53.332;9.860;2022-09-01T01:25:44;1.43;;;1.30;;
2522;SDS011;1272;53.332;9.860;2022-09-01T01:30:48;1.80;;;1.40;;
2522;SDS011;1272;53.332;9.860;2022-09-01T01:33:21;1.40;;;1.30;;
2522;SDS011;1272;53.332;9.860;2022-09-01T01:35:49;2.70;;;1.20;;
2522;SDS011;1272;53.332;9.860;2022-09-01T01:38:17;1.20;;;1.10;;
2522;SDS011;1272;53.332;9.860;2022-09-01T01:40:44;1.63;;;1.10;;
2522;SDS011;1272;53.332;9.860;2022-09-01T01:43:10;1.23;;;1.23;;
2522;SDS011;1272;53.332;9.860;2022-09-01T01:45:44;1.37;;;1.27;;
2522;SDS011;1272;53.332;9.860;2022-09-01T01:48:12;7.13;;;1.50;;
2522;SDS011;1272;53.332;9.860;2022-09-01T01:50:47;1.53;;;1.17;;
2522;SDS011;1272;53.332;9.860;2022-09-01T01:53:13;1.47;;;1.00;;
2522;SDS011;1272;53.332;9.860;2022-09-01T01:55:41;1.20;;;1.10;;
2522;SDS011;1272;53.332;9.860;2022-09-01T01:58:08;1.20;;;1.10;;
2522;SDS011;1272;53.332;9.860;2022-09-01T02:00:36;1.30;;;1.10;;
2522;SDS011;1272;53.332;9.860;2022-09-01T02:03:03;1.10;;;1.10;;
2522;SDS011;1272;53.332;9.860;2022-09-01T02:05:31;1.10;;;1.00;;
2522;SDS011;1272;53.332;9.860;2022-09-01T02:08:01;1.00;;;1.00;;
2522;SDS011;1272;53.332;9.860;2022-09-01T02:10:31;1.50;;;1.40;;
2522;SDS011;1272;53.332;9.860;2022-09-01T02:13:04;1.50;;;1.40;;
2522;SDS011;1272;53.332;9.860;2022-09-01T02:15:35;2.10;;;1.30;;
2522;SDS011;1272;53.332;9.860;2022-09-01T02:18:20;1.27;;;1.13;;
2522;SDS011;1272;53.332;9.860;2022-09-01T02:20:52;2.40;;;1.23;;
2522;SDS011;1272;53.332;9.860;2022-09-01T02:23:18;1.07;;;1.07;;
2522;SDS011;1272;53.332;9.860;2022-09-01T02:25:49;1.13;;;1.13;;
2522;SDS011;1272;53.332;9.860;2022-09-01T02:28:17;1.20;;;1.20;;
2522;SDS011;1272;53.332;9.860;2022-09-01T02:30:46;1.40;;;1.30;;
2522;SDS011;1272;53.332;9.860;2022-09-01T02:33:13;1.10;;;1.10;;
2522;SDS011;1272;53.332;9.860;2022-09-01T02:36:04;3.37;;;1.00;;
2522;SDS011;1272;53.332;9.860;2022-09-01T02:38:32;1.23;;;1.23;;
2522;SDS011;1272;53.332;9.860;2022-09-01T02:40:59;1.10;;;1.00;;
2522;SDS011;1272;53.332;9.860;2022-09-01T02:43:26;4.93;;;1.30;;
2522;SDS011;1272;53.332;9.860;2022-09-01T02:45:55;1.00;;;1.00;;
2522;SDS011;1272;53.332;9.860;2022-09-01T02:48:24;1.23;;;1.13;;
2522;SDS011;1272;53.332;9.860;2022-09-01T02:50:57;3.57;;;1.40;;
2522;SDS011;1272;53.332;9.860;2022-09-01T02:53:26;1.00;;;1.00;;
2522;SDS011;1272;53.332;9.860;2022-09-01T02:55:55;2.00;;;1.37;;
2522;SDS011;1272;53.332;9.860;2022-09-01T02:58:24;1.20;;;1.20;;
2522;SDS011;1272;53.332;9.860;2022-09-01T03:00:51;1.47;;;1.47;;
2522;SDS011;1272;53.332;9.860;2022-09-01T03:03:18;1.30;;;1.30;;
2522;SDS011;1272;53.332;9.860;2022-09-01T03:05:45;1.20;;;1.20;;
2522;SDS011;1272;53.332;9.860;2022-09-01T03:08:12;0.97;;;0.97;;
2522;SDS011;1272;53.332;9.860;2022-09-01T03:10:40;1.50;;;1.43;;
2522;SDS011;1272;53.332;9.860;2022-09-01T03:13:08;1.93;;;1.50;;
2522;SDS011;1272;53.332;9.860;2022-09-01T03:15:36;1.43;;;1.33;;
2522;SDS011;1272;53.332;9.860;2022-09-01T03:18:03;1.47;;;1.23;;
2522;SDS011;1272;53.332;9.860;2022-09-01T03:20:30;1.20;;;1.20;;
2522;SDS011;1272;53.332;9.860;2022-09-01T03:23:00;1.10;;;1.10;;
2522;SDS011;1272;53.332;9.860;2022-09-01T03:25:28;1.20;;;1.20;;
2522;SDS011;1272;53.332;9.860;2022-09-01T03:27:55;1.53;;;1.40;;
2522;SDS011;1272;53.332;9.860;2022-09-01T03:30:24;1.87;;;1.30;;
2522;SDS011;1272;53.332;9.860;2022-09-01T03:32:50;1.30;;;1.30;;
2522;SDS011;1272;53.332;9.860;2022-09-01T03:35:17;1.00;;;1.00;;
2522;SDS011;1272;53.332;9.860;2022-09-01T03:37:43;2.20;;;1.43;;
2522;SDS011;1272;53.332;9.860;2022-09-01T03:40:10;1.30;;;1.30;;
2522;SDS011;1272;53.332;9.860;2022-09-01T03:42:37;2.40;;;1.40;;
2522;SDS011;1272;53.332;9.860;2022-09-01T03:45:04;1.33;;;1.23;;
2522;SDS011;1272;53.332;9.860;2022-09-01T03:47:36;1.17;;;1.17;;
2522;SDS011;1272;53.332;9.860;2022-09-01T03:50:16;1.47;;;1.37;;
2522;SDS011;1272;53.332;9.860;2022-09-01T03:52:47;1.50;;;1.40;;
2522;SDS011;1272;53.332;9.860;2022-09-01T03:55:19;2.70;;;1.53;;
2522;SDS011;1272;53.332;9.860;2022-09-01T03:57:50;1.37;;;1.30;;
2522;SDS011;1272;53.332;9.860;2022-09-01T04:00:21;1.53;;;1.43;;
2522;SDS011;1272;53.332;9.860;2022-09-01T04:02:49;1.37;;;1.20;;
2522;SDS011;1272;53.332;9.860;2022-09-01T04:05:21;3.10;;;1.63;;
2522;SDS011;1272;53.332;9.860;2022-09-01T04:07:49;1.43;;;1.30;;
2522;SDS011;1272;53.332;9.860;2022-09-01T04:10:16;1.47;;;1.40;;
2522;SDS011;1272;53.332;9.860;2022-09-01T04:12:43;1.30;;;1.20;;
2522;SDS011;1272;53.332;9.860;2022-09-01T04:15:10;1.57;;;1.47;;
2522;SDS011;1272;53.332;9.860;2022-09-01T04:17:36;1.90;;;1.10;;
2522;SDS011;1272;53.332;9.860;2022-09-01T04:20:21;1.67;;;1.27;;
2522;SDS011;1272;53.332;9.860;2022-09-01T04:22:47;1.47;;;1.37;;
2522;SDS011;1272;53.332;9.860;2022-09-01T04:25:15;1.10;;;1.10;;
2522;SDS011;1272;53.332;9.860;2022-09-01T04:27:47;1.30;;;1.30;;
2522;SDS011;1272;53.332;9.860;2022-09-01T04:30:19;1.17;;;1.10;;
2522;SDS011;1272;53.332;9.860;2022-09-01T04:32:48;1.40;;;1.30;;
2522;SDS011;1272;53.332;9.860;2022-09-01T04:35:16;1.53;;;1.43;;
2522;SDS011;1272;53.332;9.860;2022-09-01T04:37:43;1.20;;;1.20;;
2522;SDS011;1272;53.332;9.860;2022-09-01T04:40:10;1.40;;;1.30;;
2522;SDS011;1272;53.332;9.860;2022-09-01T04:42:38;1.20;;;1.20;;
2522;SDS011;1272;53.332;9.860;2022-09-01T04:45:07;1.50;;;1.40;;
2522;SDS011;1272;53.332;9.860;2022-09-01T04:47:34;1.00;;;1.00;;
2522;SDS011;1272;53.332;9.860;2022-09-01T04:50:03;1.10;;;1.10;;
2522;SDS011;1272;53.332;9.860;2022-09-01T04:52:37;1.57;;;1.40;;
2522;SDS011;1272;53.332;9.860;2022-09-01T04:55:04;1.10;;;1.10;;
2522;SDS011;1272;53.332;9.860;2022-09-01T04:57:30;1.80;;;1.70;;
2522;SDS011;1272;53.332;9.860;2022-09-01T04:59:55;1.13;;;1.10;;
2522;SDS011;1272;53.332;9.860;2022-09-01T05:02:22;1.10;;;1.10;;
2522;SDS011;1272;53.332;9.860;2022-09-01T05:04:50;1.37;;;1.27;;
2522;SDS011;1272;53.332;9.860;2022-09-01T05:07:17;1.33;;;1.33;;
2522;SDS011;1272;53.332;9.860;2022-09-01T05:09:44;1.20;;;1.20;;
2522;SDS011;1272;53.332;9.860;2022-09-01T05:12:09;2.50;;;1.70;;
2522;SDS011;1272;53.332;9.860;2022-09-01T05:14:39;1.77;;;1.50;;
2522;SDS011;1272;53.332;9.860;2022-09-01T05:17:07;3.90;;;1.47;;
2522;SDS011;1272;53.332;9.860;2022-09-01T05:19:38;2.63;;;1.57;;
2522;SDS011;1272;53.332;9.860;2022-09-01T05:22:05;1.80;;;1.33;;
2522;SDS011;1272;53.332;9.860;2022-09-01T05:24:33;2.53;;;1.30;;
2522;SDS011;1272;53.332;9.860;2022-09-01T05:26:59;1.90;;;1.80;;
2522;SDS011;1272;53.332;9.860;2022-09-01T05:29:25;1.80;;;1.53;;
2522;SDS011;1272;53.332;9.860;2022-09-01T05:31:52;1.53;;;1.43;;
2522;SDS011;1272;53.332;9.860;2022-09-01T05:34:19;1.50;;;1.10;;
2522;SDS011;1272;53.332;9.860;2022-09-01T05:36:56;1.30;;;1.20;;
2522;SDS011;1272;53.332;9.860;2022-09-01T05:39:24;1.90;;;1.73;;
2522;SDS011;1272;53.332;9.860;2022-09-01T05:41:51;3.03;;;1.80;;
2522;SDS011;1272;53.332;9.860;2022-09-01T05:44:18;3.30;;;2.33;;
2522;SDS011;1272;53.332;9.860;2022-09-01T05:46:46;4.67;;;1.80;;
2522;SDS011;1272;53.332;9.860;2022-09-01T05:49:13;2.87;;;1.90;;
2522;SDS011;1272;53.332;9.860;2022-09-01T05:51:41;2.63;;;1.53;;
2522;SDS011;1272;53.332;9.860;2022-09-01T05:54:07;1.87;;;1.77;;
2522;SDS011;1272;53.332;9.860;2022-09-01T05:56:35;2.03;;;1.93;;
2522;SDS011;1272;53.332;9.860;2022-09-01T05:59:05;2.37;;;2.23;;
2522;SDS011;1272;53.332;9.860;2022-09-01T06:01:31;1.80;;;1.70;;
2522;SDS011;1272;53.332;9.860;2022-09-01T06:04:05;1.70;;;1.60;;
2522;SDS011;1272;53.332;9.860;2022-09-01T06:06:38;3.20;;;1.70;;
2522;SDS011;1272;53.332;9.860;2022-09-01T06:09:08;1.70;;;1.60;;
2522;SDS011;1272;53.332;9.860;2022-09-01T06:11:34;1.43;;;1.37;;
2522;SDS011;1272;53.332;9.860;2022-09-01T06:14:01;1.70;;;1.60;;
2522;SDS011;1272;53.332;9.860;2022-09-01T06:16:28;2.40;;;1.43;;
2522;SDS011;1272;53.332;9.860;2022-09-01T06:18:55;1.73;;;1.37;;
2522;SDS011;1272;53.332;9.860;2022-09-01T06:21:24;3.70;;;1.50;;
2522;SDS011;1272;53.332;9.860;2022-09-01T06:23:52;2.07;;;1.80;;
2522;SDS011;1272;53.332;9.860;2022-09-01T06:26:20;1.63;;;1.47;;
2522;SDS011;1272;53.332;9.860;2022-09-01T06:28:51;1.87;;;1.77;;
2522;SDS011;1272;53.332;9.860;2022-09-01T06:31:22;1.50;;;1.50;;
2522;SDS011;1272;53.332;9.860;2022-09-01T06:33:51;1.40;;;1.40;;
2522;SDS011;1272;53.332;9.860;2022-09-01T06:36:21;1.70;;;1.60;;
2522;SDS011;1272;53.332;9.860;2022-09-01T06:38:48;2.30;;;1.40;;
2522;SDS011;1272;53.332;9.860;2022-09-01T06:41:15;3.40;;;1.40;;
2522;SDS011;1272;53.332;9.860;2022-09-01T06:43:43;1.80;;;1.70;;
2522;SDS011;1272;53.332;9.860;2022-09-01T06:46:12;2.43;;;1.37;;
2522;SDS011;1272;53.332;9.860;2022-09-01T06:48:38;1.33;;;1.20;;
2522;SDS011;1272;53.332;9.860;2022-09-01T06:51:14;2.53;;;1.40;;
2522;SDS011;1272;53.332;9.860;2022-09-01T06:53:41;7.23;;;1.93;;
2522;SDS011;1272;53.332;9.860;2022-09-01T06:56:09;4.83;;;1.20;;
2522;SDS011;1272;53.332;9.860;2022-09-01T06:58:37;1.63;;;0.90;;
2522;SDS011;1272;53.332;9.860;2022-09-01T07:01:09;1.03;;;1.03;;
2522;SDS011;1272;53.332;9.860;2022-09-01T07:03:40;1.40;;;1.20;;
2522;SDS011;1272;53.332;9.860;2022-09-01T07:06:07;1.03;;;0.87;;
2522;SDS011;1272;53.332;9.860;2022-09-01T07:08:34;1.20;;;1.10;;
2522;SDS011;1272;53.332;9.860;2022-09-01T07:11:06;1.03;;;1.03;;
2522;SDS011;1272;53.332;9.860;2022-09-01T07:13:34;1.10;;;1.10;;
2522;SDS011;1272;53.332;9.860;2022-09-01T07:16:00;2.17;;;1.00;;
2522;SDS011;1272;53.332;9.860;2022-09-01T07:18:30;1.20;;;1.07;;
2522;SDS011;1272;53.332;9.860;2022-09-01T07:20:58;0.97;;;0.90;;
2522;SDS011;1272;53.332;9.860;2022-09-01T07:23:24;0.97;;;0.80;;
2522;SDS011;1272;53.332;9.860;2022-09-01T07:25:52;0.90;;;0.90;;
2522;SDS011;1272;53.332;9.860;2022-09-01T07:28:20;0.90;;;0.80;;
2522;SDS011;1272;53.332;9.860;2022-09-01T07:30:49;1.87;;;1.37;;
2522;SDS011;1272;53.332;9.860;2022-09-01T07:33:18;2.80;;;0.90;;
2522;SDS011;1272;53.332;9.860;2022-09-01T07:35:47;1.57;;;1.03;;
2522;SDS011;1272;53.332;9.860;2022-09-01T07:38:13;1.53;;;0.70;;
2522;SDS011;1272;53.332;9.860;2022-09-01T07:40:43;1.00;;;1.00;;
2522;SDS011;1272;53.332;9.860;2022-09-01T07:43:15;0.80;;;0.80;;
2522;SDS011;1272;53.332;9.860;2022-09-01T07:45:47;0.80;;;0.80;;
2522;SDS011;1272;53.332;9.860;2022-09-01T07:48:17;1.10;;;1.00;;
2522;SDS011;1272;53.332;9.860;2022-09-01T07:50:47;5.10;;;0.90;;
2522;SDS011;1272;53.332;9.860;2022-09-01T07:53:18;1.80;;;1.00;;
2522;SDS011;1272;53.332;9.860;2022-09-01T07:55:47;0.87;;;0.80;;
2522;SDS011;1272;53.332;9.860;2022-09-01T07:58:19;1.43;;;1.00;;
2522;SDS011;1272;53.332;9.860;2022-09-01T08:00:47;1.30;;;0.67;;
2522;SDS011;1272;53.332;9.860;2022-09-01T08:03:14;2.97;;;0.80;;
2522;SDS011;1272;53.332;9.860;2022-09-01T08:05:42;3.47;;;0.80;;
2522;SDS011;1272;53.332;9.860;2022-09-01T08:08:08;3.93;;;0.80;;
2522;SDS011;1272;53.332;9.860;2022-09-01T08:10:38;1.10;;;0.80;;
2522;SDS011;1272;53.332;9.860;2022-09-01T08:13:06;0.73;;;0.67;;
2522;SDS011;1272;53.332;9.860;2022-09-01T08:15:32;1.27;;;0.83;;
2522;SDS011;1272;53.332;9.860;2022-09-01T08:17:58;1.10;;;1.10;;
2522;SDS011;1272;53.332;9.860;2022-09-01T08:20:23;3.40;;;0.90;;
2522;SDS011;1272;53.332;9.860;2022-09-01T08:22:49;0.63;;;0.63;;
2522;SDS011;1272;53.332;9.860;2022-09-01T08:25:15;0.83;;;0.80;;
2522;SDS011;1272;53.332;9.860;2022-09-01T08:27:40;2.50;;;0.70;;
2522;SDS011;1272;53.332;9.860;2022-09-01T08:30:08;1.47;;;0.67;;
2522;SDS011;1272;53.332;9.860;2022-09-01T08:32:38;0.80;;;0.70;;
2522;SDS011;1272;53.332;9.860;2022-09-01T08:35:08;0.80;;;0.80;;
2522;SDS011;1272;53.332;9.860;2022-09-01T08:37:35;3.37;;;0.90;;
2522;SDS011;1272;53.332;9.860;2022-09-01T08:40:05;1.23;;;0.87;;
2522;SDS011;1272;53.332;9.860;2022-09-01T08:48:29;0.80;;;0.73;;
2522;SDS011;1272;53.332;9.860;2022-09-01T08:54:33;1.10;;;0.67;;
2522;SDS011;1272;53.332;9.860;2022-09-01T08:57:05;0.70;;;0.70;;
2522;SDS011;1272;53.332;9.860;2022-09-01T08:59:38;1.13;;;0.90;;
2522;SDS011;1272;53.332;9.860;2022-09-01T09:10:17;1.03;;;1.03;;
2522;SDS011;1272;53.332;9.860;2022-09-01T09:13:02;3.00;;;0.83;;
2522;SDS011;1272;53.332;9.860;2022-09-01T09:23:59;1.80;;;0.60;;
2522;SDS011;1272;53.332;9.860;2022-09-01T09:26:54;0.80;;;0.80;;
2522;SDS011;1272;53.332;9.860;2022-09-01T09:29:22;1.07;;;0.63;;
2522;SDS011;1272;53.332;9.860;2022-09-01T09:32:00;1.77;;;0.77;;
2522;SDS011;1272;53.332;9.860;2022-09-01T09:34:38;0.80;;;0.80;;
2522;SDS011;1272;53.332;9.860;2022-09-01T09:42:29;0.90;;;0.87;;
2522;SDS011;1272;53.332;9.860;2022-09-01T09:44:55;1.40;;;0.67;;
2522;SDS011;1272;53.332;9.860;2022-09-01T09:50:11;1.90;;;0.70;;
2522;SDS011;1272;53.332;9.860;2022-09-01T09:52:43;1.83;;;0.80;;
2522;SDS011;1272;53.332;9.860;2022-09-01T09:55:27;1.77;;;0.80;;
2522;SDS011;1272;53.332;9.860;2022-09-01T09:57:58;0.70;;;0.70;;
2522;SDS011;1272;53.332;9.860;2022-09-01T10:03:05;5.80;;;0.90;;
2522;SDS011;1272;53.332;9.860;2022-09-01T10:05:34;2.00;;;0.90;;
2522;SDS011;1272;53.332;9.860;2022-09-01T10:08:11;0.70;;;0.70;;
2522;SDS011;1272;53.332;9.860;2022-09-01T10:11:02;0.60;;;0.60;;
2522;SDS011;1272;53.332;9.860;2022-09-01T10:13:31;2.03;;;0.80;;
2522;SDS011;1272;53.332;9.860;2022-09-01T10:16:04;0.83;;;0.73;;
2522;SDS011;1272;53.332;9.860;2022-09-01T10:18:35;0.70;;;0.70;;
2522;SDS011;1272;53.332;9.860;2022-09-01T10:21:12;0.80;;;0.80;;
2522;SDS011;1272;53.332;9.860;2022-09-01T10:23:43;0.80;;;0.80;;
2522;SDS011;1272;53.332;9.860;2022-09-01T10:26:10;0.57;;;0.57;;
2522;SDS011;1272;53.332;9.860;2022-09-01T10:31:45;0.70;;;0.70;;
2522;SDS011;1272;53.332;9.860;2022-09-01T10:34:12;0.70;;;0.70;;
2522;SDS011;1272;53.332;9.860;2022-09-01T10:36:42;0.80;;;0.80;;
2522;SDS011;1272;53.332;9.860;2022-09-01T10:39:13;0.70;;;0.70;;
2522;SDS011;1272;53.332;9.860;2022-09-01T10:44:08;1.10;;;1.00;;
2522;SDS011;1272;53.332;9.860;2022-09-01T10:46:46;0.80;;;0.80;;
2522;SDS011;1272;53.332;9.860;2022-09-01T10:51:54;1.07;;;0.97;;
2522;SDS011;1272;53.332;9.860;2022-09-01T10:57:06;0.70;;;0.70;;
2522;SDS011;1272;53.332;9.860;2022-09-01T11:00:14;0.70;;;0.60;;
2522;SDS011;1272;53.332;9.860;2022-09-01T11:02:48;1.00;;;0.70;;
2522;SDS011;1272;53.332;9.860;2022-09-01T11:09:02;0.80;;;0.80;;
2522;SDS011;1272;53.332;9.860;2022-09-01T11:13:57;0.77;;;0.77;;
2522;SDS011;1272;53.332;9.860;2022-09-01T11:30:32;1.40;;;0.90;;
2522;SDS011;1272;53.332;9.860;2022-09-01T11:36:12;0.70;;;0.70;;
2522;SDS011;1272;53.332;9.860;2022-09-01T11:44:10;0.80;;;0.73;;
2522;SDS011;1272;53.332;9.860;2022-09-01T11:46:41;0.70;;;0.60;;
2522;SDS011;1272;53.332;9.860;2022-09-01T11:49:16;0.70;;;0.70;;
2522;SDS011;1272;53.332;9.860;2022-09-01T11:51:48;0.73;;;0.73;;
2522;SDS011;1272;53.332;9.860;2022-09-01T11:54:14;1.33;;;0.80;;
2522;SDS011;1272;53.332;9.860;2022-09-01T11:56:40;0.70;;;0.70;;
2522;SDS011;1272;53.332;9.860;2022-09-01T11:59:06;0.70;;;0.70;;
2522;SDS011;1272;53.332;9.860;2022-09-01T12:01:33;0.70;;;0.70;;
2522;SDS011;1272;53.332;9.860;2022-09-01T12:04:22;0.83;;;0.83;;
2522;SDS011;1272;53.332;9.860;2022-09-01T12:06:59;1.50;;;0.80;;
2522;SDS011;1272;53.332;9.860;2022-09-01T12:09:34;1.87;;;0.83;;
2522;SDS011;1272;53.332;9.860;2022-09-01T12:12:07;0.77;;;0.77;;
2522;SDS011;1272;53.332;9.860;2022-09-01T12:14:58;0.70;;;0.70;;
2522;SDS011;1272;53.332;9.860;2022-09-01T12:17:31;3.63;;;1.00;;
2522;SDS011;1272;53.332;9.860;2022-09-01T12:20:17;0.90;;;0.90;;
2522;SDS011;1272;53.332;9.860;2022-09-01T12:22:48;0.70;;;0.70;;
2522;SDS011;1272;53.332;9.860;2022-09-01T12:25:33;0.60;;;0.60;;
2522;SDS011;1272;53.332;9.860;2022-09-01T12:27:59;1.43;;;0.80;;
2522;SDS011;1272;53.332;9.860;2022-09-01T12:30:27;0.60;;;0.60;;
2522;SDS011;1272;53.332;9.860;2022-09-01T12:32:53;0.90;;;0.80;;
2522;SDS011;1272;53.332;9.860;2022-09-01T12:35:22;0.70;;;0.70;;
2522;SDS011;1272;53.332;9.860;2022-09-01T12:37:50;1.47;;;0.73;;
2522;SDS011;1272;53.332;9.860;2022-09-01T12:40:36;0.70;;;0.70;;
2522;SDS011;1272;53.332;9.860;2022-09-01T12:43:02;1.33;;;0.60;;
2522;SDS011;1272;53.332;9.860;2022-09-01T12:48:22;1.30;;;0.70;;
2522;SDS011;1272;53.332;9.860;2022-09-01T12:50:55;0.63;;;0.63;;
2522;SDS011;1272;53.332;9.860;2022-09-01T12:53:23;0.77;;;0.70;;
2522;SDS011;1272;53.332;9.860;2022-09-01T12:56:34;0.80;;;0.80;;
2522;SDS011;1272;53.332;9.860;2022-09-01T12:59:03;0.80;;;0.80;;
2522;SDS011;1272;53.332;9.860;2022-09-01T13:01:34;1.17;;;0.70;;
2522;SDS011;1272;53.332;9.860;2022-09-01T13:04:43;1.03;;;0.80;;
2522;SDS011;1272;53.332;9.860;2022-09-01T13:06:53;2.13;;;0.70;;
2522;SDS011;1272;53.332;9.860;2022-09-01T13:09:20;0.80;;;0.80;;
2522;SDS011;1272;53.332;9.860;2022-09-01T13:11:46;0.77;;;0.77;;
2522;SDS011;1272;53.332;9.860;2022-09-01T13:14:14;2.63;;;0.80;;
2522;SDS011;1272;53.332;9.860;2022-09-01T13:16:41;2.37;;;0.80;;
2522;SDS011;1272;53.332;9.860;2022-09-01T13:19:07;1.70;;;0.97;;
2522;SDS011;1272;53.332;9.860;2022-09-01T13:21:33;2.13;;;0.70;;
2522;SDS011;1272;53.332;9.860;2022-09-01T13:24:00;3.57;;;1.13;;
2522;SDS011;1272;53.332;9.860;2022-09-01T13:26:28;1.97;;;1.10;;
2522;SDS011;1272;53.332;9.860;2022-09-01T13:28:55;2.80;;;0.80;;
2522;SDS011;1272;53.332;9.860;2022-09-01T13:31:24;0.60;;;0.60;;
2522;SDS011;1272;53.332;9.860;2022-09-01T13:33:50;1.00;;;0.70;;
2522;SDS011;1272;53.332;9.860;2022-09-01T13:36:15;0.87;;;0.87;;
2522;SDS011;1272;53.332;9.860;2022-09-01T13:38:41;1.50;;;0.80;;
2522;SDS011;1272;53.332;9.860;2022-09-01T13:41:07;1.17;;;0.70;;
2522;SDS011;1272;53.332;9.860;2022-09-01T13:43:35;0.70;;;0.70;;
2522;SDS011;1272;53.332;9.860;2022-09-01T13:46:01;3.60;;;0.83;;
2522;SDS011;1272;53.332;9.860;2022-09-01T13:48:26;1.10;;;0.80;;
2522;SDS011;1272;53.332;9.860;2022-09-01T13:50:52;0.73;;;0.73;;
2522;SDS011;1272;53.332;9.860;2022-09-01T13:53:19;0.90;;;0.90;;
2522;SDS011;1272;53.332;9.860;2022-09-01T13:55:45;0.87;;;0.60;;
2522;SDS011;1272;53.332;9.860;2022-09-01T13:58:11;0.67;;;0.67;;
2522;SDS011;1272;53.332;9.860;2022-09-01T14:00:40;1.53;;;0.80;;
2522;SDS011;1272;53.332;9.860;2022-09-01T14:03:12;1.60;;;0.80;;
2522;SDS011;1272;53.332;9.860;2022-09-01T14:05:42;0.77;;;0.77;;
2522;SDS011;1272;53.332;9.860;2022-09-01T14:08:10;0.60;;;0.60;;
2522;SDS011;1272;53.332;9.860;2022-09-01T14:10:38;1.00;;;0.80;;
2522;SDS011;1272;53.332;9.860;2022-09-01T14:13:06;1.70;;;0.77;;
2522;SDS011;1272;53.332;9.860;2022-09-01T14:15:33;0.80;;;0.80;;
2522;SDS011;1272;53.332;9.860;2022-09-01T14:18:00;1.33;;;0.80;;
2522;SDS011;1272;53.332;9.860;2022-09-01T14:20:27;1.43;;;1.07;;
2522;SDS011;1272;53.332;9.860;2022-09-01T14:22:59;0.77;;;0.70;;
2522;SDS011;1272;53.332;9.860;2022-09-01T14:25:26;1.60;;;0.73;;
2522;SDS011;1272;53.332;9.860;2022-09-01T14:27:53;0.90;;;0.67;;
2522;SDS011;1272;53.332;9.860;2022-09-01T14:30:22;0.90;;;0.90;;
2522;SDS011;1272;53.332;9.860;2022-09-01T14:32:50;0.90;;;0.80;;
2522;SDS011;1272;53.332;9.860;2022-09-01T14:35:17;0.80;;;0.80;;
2522;SDS011;1272;53.332;9.860;2022-09-01T14:37:45;0.70;;;0.70;;
2522;SDS011;1272;53.332;9.860;2022-09-01T14:40:12;1.10;;;0.83;;
2522;SDS011;1272;53.332;9.860;2022-09-01T14:42:41;2.70;;;0.70;;
2522;SDS011;1272;53.332;9.860;2022-09-01T14:45:08;1.27;;;0.80;;
2522;SDS011;1272;53.332;9.860;2022-09-01T14:47:36;1.70;;;0.90;;
2522;SDS011;1272;53.332;9.860;2022-09-01T14:50:03;1.33;;;0.87;;
2522;SDS011;1272;53.332;9.860;2022-09-01T14:52:30;1.20;;;0.90;;
2522;SDS011;1272;53.332;9.860;2022-09-01T14:54:56;0.80;;;0.80;;
2522;SDS011;1272;53.332;9.860;2022-09-01T14:57:22;2.30;;;0.90;;
2522;SDS011;1272;53.332;9.860;2022-09-01T14:59:47;1.30;;;0.83;;
2522;SDS011;1272;53.332;9.860;2022-09-01T15:02:13;0.70;;;0.70;;
2522;SDS011;1272;53.332;9.860;2022-09-01T15:04:39;1.77;;;0.90;;
2522;SDS011;1272;53.332;9.860;2022-09-01T15:07:06;0.80;;;0.80;;
2522;SDS011;1272;53.332;9.860;2022-09-01T15:09:32;0.80;;;0.80;;
2522;SDS011;1272;53.332;9.860;2022-09-01T15:11:58;0.80;;;0.80;;
2522;SDS011;1272;53.332;9.860;2022-09-01T15:14:25;0.87;;;0.80;;
2522;SDS011;1272;53.332;9.860;2022-09-01T15:16:51;1.13;;;0.80;;
2522;SDS011;1272;53.332;9.860;2022-09-01T15:19:16;0.80;;;0.77;;
2522;SDS011;1272;53.332;9.860;2022-09-01T15:21:43;0.80;;;0.80;;
2522;SDS011;1272;53.332;9.860;2022-09-01T15:24:10;1.30;;;0.67;;
2522;SDS011;1272;53.332;9.860;2022-09-01T15:26:36;3.53;;;0.70;;
2522;SDS011;1272;53.332;9.860;2022-09-01T15:29:05;2.07;;;0.83;;
2522;SDS011;1272;53.332;9.860;2022-09-01T15:31:33;1.60;;;1.00;;
2522;SDS011;1272;53.332;9.860;2022-09-01T15:34:00;1.03;;;0.80;;
2522;SDS011;1272;53.332;9.860;2022-09-01T15:36:28;2.97;;;0.80;;
2522;SDS011;1272;53.332;9.860;2022-09-01T15:38:55;0.60;;;0.60;;
2522;SDS011;1272;53.332;9.860;2022-09-01T15:41:25;0.70;;;0.70;;
2522;SDS011;1272;53.332;9.860;2022-09-01T15:43:53;1.40;;;0.90;;
2522;SDS011;1272;53.332;9.860;2022-09-01T15:46:20;2.23;;;0.80;;
2522;SDS011;1272;53.332;9.860;2022-09-01T15:48:46;2.50;;;0.90;;
2522;SDS011;1272;53.332;9.860;2022-09-01T15:53:53;0.80;;;0.60;;
2522;SDS011;1272;53.332;9.860;2022-09-01T15:56:24;0.80;;;0.80;;
2522;SDS011;1272;53.332;9.860;2022-09-01T15:58:58;2.10;;;1.00;;
2522;SDS011;1272;53.332;9.860;2022-09-01T16:01:28;1.00;;;0.90;;
2522;SDS011;1272;53.332;9.860;2022-09-01T16:03:56;1.00;;;0.70;;
2522;SDS011;1272;53.332;9.860;2022-09-01T16:06:22;0.90;;;0.90;;
2522;SDS011;1272;53.332;9.860;2022-09-01T16:08:48;2.30;;;0.77;;
2522;SDS011;1272;53.332;9.860;2022-09-01T16:11:14;1.53;;;0.80;;
2522;SDS011;1272;53.332;9.860;2022-09-01T16:13:40;0.80;;;0.80;;
2522;SDS011;1272;53.332;9.860;2022-09-01T16:21:51;0.80;;;0.80;;
2522;SDS011;1272;53.332;9.860;2022-09-01T16:24:19;2.00;;;0.77;;
2522;SDS011;1272;53.332;9.860;2022-09-01T16:26:45;1.17;;;1.10;;
2522;SDS011;1272;53.332;9.860;2022-09-01T16:29:20;2.13;;;0.80;;
2522;SDS011;1272;53.332;9.860;2022-09-01T16:31:49;1.00;;;0.87;;
2522;SDS011;1272;53.332;9.860;2022-09-01T16:34:19;2.77;;;0.70;;
2522;SDS011;1272;53.332;9.860;2022-09-01T16:39:45;1.00;;;1.00;;
2522;SDS011;1272;53.332;9.860;2022-09-01T16:42:32;0.90;;;0.90;;
2522;SDS011;1272;53.332;9.860;2022-09-01T16:50:25;2.77;;;0.87;;
2522;SDS011;1272;53.332;9.860;2022-09-01T17:01:29;2.90;;;0.90;;
2522;SDS011;1272;53.332;9.860;2022-09-01T17:07:19;1.43;;;1.10;;
2522;SDS011;1272;53.332;9.860;2022-09-01T17:15:14;1.07;;;0.90;;
2522;SDS011;1272;53.332;9.860;2022-09-01T17:17:46;1.00;;;0.73;;
2522;SDS011;1272;53.332;9.860;2022-09-01T17:20:33;3.63;;;1.00;;
2522;SDS011;1272;53.332;9.860;2022-09-01T17:23:01;0.80;;;0.80;;
2522;SDS011;1272;53.332;9.860;2022-09-01T17:25:35;4.77;;;1.20;;